createdAt,value
2019-02-14T00:00:48.449Z,5.99
2019-02-14T00:01:48.478Z,5.92
2019-02-14T00:02:48.488Z,5.84
2019-02-14T00:03:48.513Z,5.87
2019-02-14T00:04:48.537Z,5.84
2019-02-14T00:05:48.563Z,5.81
2019-02-14T00:06:48.590Z,5.78
2019-02-14T00:07:48.609Z,5.85
2019-02-14T00:08:48.627Z,5.80
2019-02-14T00:09:48.655Z,5.77
2019-02-14T00:10:48.674Z,5.77
2019-02-14T00:11:48.707Z,5.77
2019-02-14T00:12:48.721Z,5.77
2019-02-14T00:13:48.749Z,5.70
2019-02-14T00:14:48.769Z,5.81
2019-02-14T00:15:48.793Z,5.75
2019-02-14T00:16:48.814Z,5.78
2019-02-14T00:17:48.847Z,5.73
2019-02-14T00:18:48.865Z,5.66
2019-02-14T00:19:48.891Z,5.69
2019-02-14T00:20:48.916Z,5.63
2019-02-14T00:21:48.929Z,5.73
2019-02-14T00:22:48.954Z,5.70
2019-02-14T00:23:48.976Z,5.69
2019-02-14T00:24:49.002Z,5.67
2019-02-14T00:25:49.023Z,5.72
2019-02-14T00:26:49.044Z,5.69
2019-02-14T00:27:49.068Z,5.62
2019-02-14T00:28:49.092Z,5.60
2019-02-14T00:29:49.118Z,5.69
2019-02-14T00:30:49.150Z,5.63
2019-02-14T00:31:49.163Z,5.64
2019-02-14T00:32:49.184Z,5.66
2019-02-14T00:33:49.222Z,5.63
2019-02-14T00:34:49.230Z,5.55
2019-02-14T00:35:49.261Z,5.62
2019-02-14T00:36:49.279Z,5.57
2019-02-14T00:37:49.306Z,5.63
2019-02-14T00:38:49.328Z,5.62
2019-02-14T00:39:49.348Z,5.52
2019-02-14T00:40:49.378Z,5.51
2019-02-14T00:41:49.391Z,5.48
2019-02-14T00:42:49.417Z,5.45
2019-02-14T00:43:49.441Z,5.45
2019-02-14T00:44:49.461Z,5.45
2019-02-14T00:45:49.485Z,5.45
2019-02-14T00:46:49.509Z,5.46
2019-02-14T00:47:49.530Z,5.55
2019-02-14T00:48:49.561Z,5.46
2019-02-14T00:49:49.578Z,5.46
2019-02-14T00:50:49.603Z,5.45
2019-02-14T00:51:49.625Z,5.48
2019-02-14T00:52:49.645Z,5.45
2019-02-14T00:53:49.667Z,5.46
2019-02-14T00:54:49.693Z,5.45
2019-02-14T00:55:49.720Z,5.49
2019-02-14T00:56:49.737Z,5.48
2019-02-14T00:57:49.762Z,5.51
2019-02-14T00:58:49.782Z,5.45
2019-02-14T00:59:49.806Z,5.49
2019-02-14T01:00:49.833Z,5.46
2019-02-14T01:01:49.858Z,5.49
2019-02-14T01:02:49.876Z,5.52
2019-02-14T01:03:49.899Z,5.51
2019-02-14T01:04:49.922Z,5.51
2019-02-14T01:05:49.950Z,5.54
2019-02-14T01:06:49.967Z,5.51
2019-02-14T01:07:49.990Z,5.46
2019-02-14T01:08:50.015Z,5.48
2019-02-14T01:09:50.038Z,5.51
2019-02-14T01:10:50.062Z,5.42
2019-02-14T01:11:50.093Z,5.46
2019-02-14T01:12:50.110Z,5.39
2019-02-14T01:13:50.128Z,5.36
2019-02-14T01:14:50.152Z,5.37
2019-02-14T01:15:50.173Z,5.39
2019-02-14T01:16:50.205Z,5.33
2019-02-14T01:17:50.226Z,5.33
2019-02-14T01:18:50.246Z,5.28
2019-02-14T01:19:50.270Z,5.30
2019-02-14T01:20:50.290Z,5.34
2019-02-14T01:21:50.311Z,5.33
2019-02-14T01:22:50.347Z,5.27
2019-02-14T01:23:50.364Z,5.34
2019-02-14T01:24:50.386Z,5.21
2019-02-14T01:25:50.401Z,5.34
2019-02-14T01:26:50.425Z,5.31
2019-02-14T01:27:50.450Z,5.30
2019-02-14T01:28:50.475Z,5.24
2019-02-14T01:29:50.496Z,5.27
2019-02-14T01:30:50.516Z,5.30
2019-02-14T01:31:50.547Z,5.27
2019-02-14T01:32:50.561Z,5.23
2019-02-14T01:33:50.586Z,5.23
2019-02-14T01:34:50.608Z,5.31
2019-02-14T01:35:50.638Z,5.23
2019-02-14T01:36:50.661Z,5.24
2019-02-14T01:37:50.677Z,5.24
2019-02-14T01:38:50.701Z,5.15
2019-02-14T01:39:50.728Z,5.18
2019-02-14T01:40:50.747Z,5.21
2019-02-14T01:41:50.773Z,5.27
2019-02-14T01:42:50.801Z,5.12
2019-02-14T01:43:50.821Z,5.18
2019-02-14T01:44:50.836Z,5.08
2019-02-14T01:45:50.866Z,5.12
2019-02-14T01:46:50.887Z,5.05
2019-02-14T01:47:50.913Z,5.09
2019-02-14T01:48:50.927Z,5.10
2019-02-14T01:49:50.950Z,5.05
2019-02-14T01:50:50.972Z,5.10
2019-02-14T01:51:50.996Z,5.10
2019-02-14T01:52:51.018Z,5.09
2019-02-14T01:53:51.048Z,5.10
2019-02-14T01:54:51.066Z,5.10
2019-02-14T01:55:51.088Z,5.12
2019-02-14T01:56:51.110Z,5.03
2019-02-14T01:57:51.131Z,5.06
2019-02-14T01:58:51.156Z,5.08
2019-02-14T01:59:51.192Z,5.15
2019-02-14T02:00:51.208Z,5.06
2019-02-14T02:01:51.222Z,4.97
2019-02-14T02:02:51.250Z,4.95
2019-02-14T02:03:51.267Z,4.95
2019-02-14T02:04:51.292Z,4.98
2019-02-14T02:05:51.316Z,4.92
2019-02-14T02:06:51.336Z,4.88
2019-02-14T02:07:51.358Z,4.85
2019-02-14T02:08:51.383Z,4.76
2019-02-14T02:09:51.403Z,4.75
2019-02-14T02:10:51.427Z,4.74
2019-02-14T02:11:51.450Z,4.74
2019-02-14T02:12:51.471Z,4.66
2019-02-14T02:13:51.493Z,4.68
2019-02-14T02:14:51.524Z,4.65
2019-02-14T02:15:51.540Z,4.66
2019-02-14T02:16:51.569Z,4.69
2019-02-14T02:17:51.593Z,4.69
2019-02-14T02:18:51.608Z,4.61
2019-02-14T02:19:51.630Z,4.69
2019-02-14T02:20:51.659Z,4.69
2019-02-14T02:21:51.678Z,4.69
2019-02-14T02:22:51.702Z,4.78
2019-02-14T02:23:51.720Z,4.76
2019-02-14T02:24:51.748Z,4.68
2019-02-14T02:25:51.766Z,4.79
2019-02-14T02:26:51.787Z,4.78
2019-02-14T02:27:51.810Z,4.85
2019-02-14T02:28:51.834Z,4.84
2019-02-14T02:29:51.853Z,4.83
2019-02-14T02:30:51.878Z,4.84
2019-02-14T02:31:51.907Z,4.76
2019-02-14T02:32:51.926Z,4.83
2019-02-14T02:33:51.945Z,4.91
2019-02-14T02:34:51.966Z,4.90
2019-02-14T02:36:00.140Z,4.92
2019-02-14T02:36:52.017Z,4.88
2019-02-14T02:37:52.036Z,4.85
2019-02-14T02:38:52.055Z,4.88
2019-02-14T02:39:52.085Z,4.78
2019-02-14T02:40:52.103Z,4.79
2019-02-14T02:41:52.130Z,4.74
2019-02-14T02:42:52.146Z,4.76
2019-02-14T02:43:52.169Z,4.66
2019-02-14T02:44:52.196Z,4.68
2019-02-14T02:45:52.214Z,4.69
2019-02-14T02:46:52.245Z,4.58
2019-02-14T02:47:52.261Z,4.65
2019-02-14T02:48:52.295Z,4.56
2019-02-14T02:49:52.304Z,4.68
2019-02-14T02:50:52.329Z,4.58
2019-02-14T02:51:52.347Z,4.72
2019-02-14T02:52:52.381Z,4.72
2019-02-14T02:53:52.393Z,4.72
2019-02-14T02:54:52.418Z,4.69
2019-02-14T02:55:52.442Z,4.56
2019-02-14T02:56:52.465Z,4.58
2019-02-14T02:57:52.493Z,4.57
2019-02-14T02:58:52.514Z,4.64
2019-02-14T02:59:52.536Z,4.47
2019-02-14T03:00:52.551Z,4.51
2019-02-14T03:01:52.573Z,4.46
2019-02-14T03:02:52.597Z,4.50
2019-02-14T03:03:52.621Z,4.39
2019-02-14T03:04:52.645Z,4.39
2019-02-14T03:05:52.667Z,4.36
2019-02-14T03:06:52.696Z,4.51
2019-02-14T03:08:37.886Z,4.39
2019-02-14T03:09:35.293Z,4.48
2019-02-14T03:10:35.307Z,4.44
2019-02-14T03:11:35.327Z,4.40
2019-02-14T03:12:35.344Z,4.38
2019-02-14T03:13:35.366Z,4.30
2019-02-14T03:14:35.394Z,4.39
2019-02-14T03:15:35.420Z,4.28
2019-02-14T03:16:35.432Z,4.35
2019-02-14T03:17:35.457Z,4.29
2019-02-14T03:18:35.479Z,4.24
2019-02-14T03:19:35.508Z,4.28
2019-02-14T03:20:35.573Z,4.26
2019-02-14T03:21:35.548Z,4.28
2019-02-14T03:22:35.570Z,4.24
2019-02-14T03:23:35.597Z,4.26
2019-02-14T03:24:35.614Z,4.18
2019-02-14T03:25:35.759Z,4.17
2019-02-14T03:26:35.663Z,4.20
2019-02-14T03:27:35.681Z,4.15
2019-02-14T03:28:35.701Z,4.10
2019-02-14T03:29:35.726Z,4.08
2019-02-14T03:30:35.750Z,4.10
2019-02-14T03:31:35.785Z,4.07
2019-02-14T03:32:35.809Z,4.12
2019-02-14T03:33:35.820Z,4.14
2019-02-14T03:34:35.834Z,4.10
2019-02-14T03:35:35.862Z,4.17
2019-02-14T03:36:35.889Z,3.99
2019-02-14T03:37:35.901Z,4.12
2019-02-14T03:38:35.928Z,4.03
2019-02-14T03:39:35.947Z,3.99
2019-02-14T03:40:35.967Z,4.08
2019-02-14T03:41:35.997Z,4.08
2019-02-14T03:42:36.011Z,4.03
2019-02-14T03:43:36.042Z,4.03
2019-02-14T03:44:36.058Z,3.97
2019-02-14T03:45:36.080Z,3.89
2019-02-14T03:46:36.101Z,3.97
2019-02-14T03:47:36.123Z,3.90
2019-02-14T03:48:36.147Z,3.93
2019-02-14T03:49:36.169Z,3.86
2019-02-14T03:50:36.189Z,3.94
2019-02-14T03:51:36.211Z,3.96
2019-02-14T03:52:36.236Z,3.92
2019-02-14T03:53:36.256Z,3.92
2019-02-14T03:54:36.284Z,3.85
2019-02-14T03:55:36.302Z,3.84
2019-02-14T03:56:36.321Z,3.82
2019-02-14T03:57:36.347Z,3.71
2019-02-14T03:58:36.370Z,3.72
2019-02-14T03:59:36.391Z,3.66
2019-02-14T04:00:36.427Z,3.64
2019-02-14T04:01:36.435Z,3.61
2019-02-14T04:02:36.459Z,3.63
2019-02-14T04:03:36.477Z,3.66
2019-02-14T04:04:36.503Z,3.64
2019-02-14T04:05:36.528Z,3.63
2019-02-14T04:06:36.546Z,3.69
2019-02-14T04:07:36.573Z,3.69
2019-02-14T04:08:36.613Z,3.72
2019-02-14T04:09:36.614Z,3.69
2019-02-14T04:10:36.636Z,3.60
2019-02-14T04:11:36.657Z,3.64
2019-02-14T04:12:36.678Z,3.61
2019-02-14T04:13:36.702Z,3.56
2019-02-14T04:14:36.720Z,3.51
2019-02-14T04:15:36.741Z,3.56
2019-02-14T04:16:36.771Z,3.51
2019-02-14T04:17:36.789Z,3.56
2019-02-14T04:18:36.812Z,3.53
2019-02-14T04:19:36.836Z,3.53
2019-02-14T04:20:36.853Z,3.51
2019-02-14T04:21:36.877Z,3.56
2019-02-14T04:22:36.897Z,3.54
2019-02-14T04:23:36.919Z,3.49
2019-02-14T04:24:36.948Z,3.48
2019-02-14T04:25:36.974Z,3.39
2019-02-14T04:26:36.999Z,3.46
2019-02-14T04:27:37.009Z,3.34
2019-02-14T04:28:37.030Z,3.40
2019-02-14T04:29:37.053Z,3.35
2019-02-14T04:30:37.073Z,3.46
2019-02-14T04:31:37.094Z,3.42
2019-02-14T04:32:37.121Z,3.40
2019-02-14T04:33:37.142Z,3.37
2019-02-14T04:34:37.162Z,3.37
2019-02-14T04:35:37.181Z,3.37
2019-02-14T04:36:37.207Z,3.29
2019-02-14T04:37:37.233Z,3.32
2019-02-14T04:38:37.286Z,3.26
2019-02-14T04:39:37.269Z,3.23
2019-02-14T04:40:37.293Z,3.34
2019-02-14T04:41:37.313Z,3.35
2019-02-14T04:42:37.338Z,3.43
2019-02-14T04:43:37.357Z,3.46
2019-02-14T04:44:37.382Z,3.35
2019-02-14T04:45:37.410Z,3.46
2019-02-14T04:46:37.426Z,3.45
2019-02-14T04:47:37.443Z,3.39
2019-02-14T04:48:37.468Z,3.43
2019-02-14T04:49:37.486Z,3.40
2019-02-14T04:50:37.509Z,3.46
2019-02-14T04:51:37.541Z,3.40
2019-02-14T04:52:37.567Z,3.39
2019-02-14T04:53:37.577Z,3.34
2019-02-14T04:54:37.601Z,3.48
2019-02-14T04:55:39.107Z,3.37
2019-02-14T04:56:37.651Z,3.43
2019-02-14T04:57:37.664Z,3.45
2019-02-14T04:58:37.692Z,3.40
2019-02-14T04:59:37.712Z,3.37
2019-02-14T05:00:37.734Z,3.40
2019-02-14T05:01:37.751Z,3.40
2019-02-14T05:02:37.773Z,3.37
2019-02-14T05:03:37.794Z,3.30
2019-02-14T05:04:37.817Z,3.40
2019-02-14T05:05:37.837Z,3.35
2019-02-14T05:06:44.232Z,3.42
2019-02-14T05:07:37.882Z,3.42
2019-02-14T05:08:37.904Z,3.30
2019-02-14T05:09:37.926Z,3.40
2019-02-14T05:10:37.950Z,3.32
2019-02-14T05:11:37.969Z,3.37
2019-02-14T05:12:38.033Z,3.29
2019-02-14T05:13:38.012Z,3.19
2019-02-14T05:14:38.033Z,3.20
2019-02-14T05:15:38.064Z,3.16
2019-02-14T05:16:38.084Z,3.19
2019-02-14T05:17:38.096Z,3.11
2019-02-14T05:18:38.127Z,3.13
2019-02-14T05:19:38.143Z,3.06
2019-02-14T05:20:38.165Z,3.13
2019-02-14T05:21:38.184Z,3.09
2019-02-14T05:22:38.205Z,3.14
2019-02-14T05:23:38.228Z,3.14
2019-02-14T05:24:38.254Z,3.09
2019-02-14T05:25:38.277Z,3.17
2019-02-14T05:26:38.296Z,3.19
2019-02-14T05:27:38.319Z,3.13
2019-02-14T05:28:38.336Z,3.13
2019-02-14T05:29:38.358Z,3.09
2019-02-14T05:30:38.380Z,3.05
2019-02-14T05:31:38.403Z,3.05
2019-02-14T05:32:38.433Z,3.05
2019-02-14T05:33:38.451Z,3.01
2019-02-14T05:34:38.465Z,3.03
2019-02-14T05:35:38.490Z,3.01
2019-02-14T05:36:38.511Z,3.06
2019-02-14T05:37:38.536Z,2.99
2019-02-14T05:38:38.551Z,2.93
2019-02-14T05:39:38.575Z,2.98
2019-02-14T05:40:38.596Z,3.03
2019-02-14T05:41:38.617Z,3.03
2019-02-14T05:42:38.647Z,2.99
2019-02-14T05:43:38.661Z,2.99
2019-02-14T05:44:38.687Z,3.01
2019-02-14T05:45:38.705Z,3.01
2019-02-14T05:46:38.729Z,2.98
2019-02-14T05:47:38.752Z,2.99
2019-02-14T05:48:39.193Z,2.93
2019-02-14T05:49:38.792Z,2.99
2019-02-14T05:50:38.814Z,2.95
2019-02-14T05:51:38.832Z,2.98
2019-02-14T05:52:38.866Z,2.87
2019-02-14T05:53:38.884Z,2.87
2019-02-14T05:54:38.904Z,2.83
2019-02-14T05:55:38.922Z,2.88
2019-02-14T05:56:38.944Z,2.90
2019-02-14T05:57:38.965Z,2.87
2019-02-14T05:58:38.984Z,2.87
2019-02-14T05:59:39.006Z,2.88
2019-02-14T06:00:39.025Z,2.90
2019-02-14T06:01:39.050Z,2.87
2019-02-14T06:02:39.075Z,2.81
2019-02-14T06:03:39.090Z,2.88
2019-02-14T06:04:39.120Z,2.85
2019-02-14T06:05:39.134Z,2.85
2019-02-14T06:06:39.158Z,2.85
2019-02-14T06:07:39.187Z,2.78
2019-02-14T06:08:39.200Z,2.83
2019-02-14T06:09:39.230Z,2.83
2019-02-14T06:10:39.242Z,2.84
2019-02-14T06:11:39.271Z,2.83
2019-02-14T06:12:39.684Z,2.83
2019-02-14T06:13:39.708Z,2.84
2019-02-14T06:14:39.327Z,2.83
2019-02-14T06:15:39.349Z,2.83
2019-02-14T06:16:39.375Z,2.80
2019-02-14T06:17:39.395Z,2.83
2019-02-14T06:18:39.414Z,2.83
2019-02-14T06:19:39.439Z,2.80
2019-02-14T06:20:39.457Z,2.84
2019-02-14T06:21:39.478Z,2.91
2019-02-14T06:22:39.507Z,2.88
2019-02-14T06:23:39.522Z,2.88
2019-02-14T06:24:39.542Z,2.83
2019-02-14T06:25:39.565Z,2.88
2019-02-14T06:26:39.586Z,2.87
2019-02-14T06:27:39.605Z,2.88
2019-02-14T06:28:39.626Z,2.83
2019-02-14T06:29:39.649Z,2.80
2019-02-14T06:30:39.673Z,2.87
2019-02-14T06:31:39.694Z,2.90
2019-02-14T06:32:39.714Z,2.91
2019-02-14T06:33:39.738Z,2.98
2019-02-14T06:34:39.757Z,2.96
2019-02-14T06:35:39.778Z,3.03
2019-02-14T06:36:39.808Z,3.01
2019-02-14T06:37:39.825Z,3.13
2019-02-14T06:38:39.857Z,3.09
2019-02-14T06:39:39.871Z,3.11
2019-02-14T06:40:39.885Z,3.14
2019-02-14T06:41:39.911Z,3.09
2019-02-14T06:42:39.933Z,3.14
2019-02-14T06:43:39.951Z,3.17
2019-02-14T06:44:39.973Z,3.17
2019-02-14T06:45:39.994Z,3.20
2019-02-14T06:46:40.017Z,3.11
2019-02-14T06:47:40.040Z,3.21
2019-02-14T06:48:40.067Z,3.19
2019-02-14T06:49:40.084Z,3.20
2019-02-14T06:50:40.103Z,3.29
2019-02-14T06:51:40.124Z,3.29
2019-02-14T06:52:40.507Z,3.30
2019-02-14T06:53:40.168Z,3.40
2019-02-14T06:54:40.199Z,3.32
2019-02-14T06:55:40.221Z,3.30
2019-02-14T06:56:40.233Z,3.37
2019-02-14T06:57:40.255Z,3.43
2019-02-14T06:58:40.279Z,3.37
2019-02-14T06:59:40.301Z,3.32
2019-02-14T07:00:40.322Z,3.29
2019-02-14T07:01:40.345Z,3.23
2019-02-14T07:02:40.535Z,3.32
2019-02-14T07:03:40.563Z,3.35
2019-02-14T07:04:40.409Z,3.35
2019-02-14T07:05:40.431Z,3.30
2019-02-14T07:06:40.460Z,3.35
2019-02-14T07:07:40.475Z,3.37
2019-02-14T07:08:40.495Z,3.32
2019-02-14T07:09:40.519Z,3.92
2019-02-14T07:10:40.547Z,4.26
2019-02-14T07:11:40.561Z,4.50
2019-02-14T07:12:40.589Z,4.60
2019-02-14T07:13:40.615Z,4.60
2019-02-14T07:14:40.632Z,4.35
2019-02-14T07:15:40.650Z,4.08
2019-02-14T07:16:40.671Z,3.76
2019-02-14T07:17:40.693Z,3.60
2019-02-14T07:18:40.817Z,3.49
2019-02-14T07:19:40.735Z,3.49
2019-02-14T07:20:40.757Z,3.32
2019-02-14T07:21:40.787Z,3.53
2019-02-14T07:22:40.802Z,3.43
2019-02-14T07:23:40.826Z,3.48
2019-02-14T07:24:40.847Z,3.56
2019-02-14T07:25:40.873Z,3.56
2019-02-14T07:26:40.891Z,3.45
2019-02-14T07:27:40.911Z,3.40
2019-02-14T07:28:40.933Z,3.43
2019-02-14T07:29:40.959Z,3.46
2019-02-14T07:30:40.986Z,3.45
2019-02-14T07:31:41.001Z,3.51
2019-02-14T07:32:41.021Z,3.61
2019-02-14T07:33:41.043Z,3.66
2019-02-14T07:34:41.075Z,3.64
2019-02-14T07:35:41.088Z,3.58
2019-02-14T07:36:41.110Z,3.66
2019-02-14T07:37:41.134Z,3.57
2019-02-14T07:38:41.159Z,3.67
2019-02-14T07:39:41.178Z,3.69
2019-02-14T07:40:41.204Z,3.76
2019-02-14T07:41:41.221Z,3.64
2019-02-14T07:42:41.242Z,3.67
2019-02-14T07:43:41.262Z,3.69
2019-02-14T07:44:41.291Z,3.66
2019-02-14T07:45:41.403Z,3.66
2019-02-14T07:46:41.329Z,3.74
2019-02-14T07:47:41.352Z,3.85
2019-02-14T07:48:41.373Z,3.81
2019-02-14T07:49:41.396Z,3.92
2019-02-14T07:50:41.418Z,3.90
2019-02-14T07:51:41.488Z,4.03
2019-02-14T07:52:41.461Z,4.03
2019-02-14T07:53:41.550Z,4.08
2019-02-14T07:54:41.509Z,4.15
2019-02-14T07:55:41.530Z,4.21
2019-02-14T07:56:41.550Z,4.22
2019-02-14T07:57:41.573Z,4.11
2019-02-14T07:58:41.601Z,4.15
2019-02-14T07:59:41.620Z,4.22
2019-02-14T08:00:41.646Z,4.24
2019-02-14T08:01:41.664Z,4.30
2019-02-14T08:02:41.695Z,4.39
2019-02-14T08:03:41.709Z,4.35
2019-02-14T08:04:41.742Z,4.44
2019-02-14T08:05:41.754Z,4.35
2019-02-14T08:06:41.776Z,4.39
2019-02-14T08:07:41.800Z,4.40
2019-02-14T08:08:41.819Z,4.51
2019-02-14T08:09:41.842Z,4.51
2019-02-14T08:10:41.864Z,4.39
2019-02-14T08:11:41.886Z,4.51
2019-02-14T08:13:41.940Z,4.38
2019-02-14T08:14:41.955Z,4.47
2019-02-14T08:15:41.976Z,4.38
2019-02-14T08:16:41.998Z,4.56
2019-02-14T08:17:42.022Z,4.58
2019-02-14T08:18:42.047Z,4.71
2019-02-14T08:19:42.063Z,4.66
2019-02-14T08:20:42.090Z,4.83
2019-02-14T08:21:42.111Z,4.95
2019-02-14T08:22:42.137Z,5.00
2019-02-14T08:23:42.154Z,5.03
2019-02-14T08:24:42.178Z,5.10
2019-02-14T08:25:42.201Z,5.15
2019-02-14T08:26:42.233Z,5.18
2019-02-14T08:27:42.248Z,5.21
2019-02-14T08:28:42.269Z,5.30
2019-02-14T08:29:42.293Z,5.39
2019-02-14T08:30:42.318Z,5.45
2019-02-14T08:31:42.437Z,5.46
2019-02-14T08:32:42.367Z,5.49
2019-02-14T08:33:42.383Z,5.48
2019-02-14T08:34:42.411Z,5.49
2019-02-14T08:35:42.433Z,5.54
2019-02-14T08:36:42.458Z,5.52
2019-02-14T08:37:45.701Z,5.66
2019-02-14T08:38:42.498Z,5.64
2019-02-14T08:39:42.525Z,5.69
2019-02-14T08:40:43.758Z,5.67
2019-02-14T08:41:42.568Z,5.60
2019-02-14T08:42:43.107Z,5.60
2019-02-14T08:43:42.610Z,5.60
2019-02-14T08:44:42.633Z,5.70
2019-02-14T08:45:42.660Z,5.70
2019-02-14T08:46:42.690Z,5.72
2019-02-14T08:47:42.703Z,5.69
2019-02-14T08:48:42.728Z,5.70
2019-02-14T08:49:42.750Z,5.81
2019-02-14T08:50:42.775Z,5.85
2019-02-14T08:51:42.798Z,5.89
2019-02-14T08:52:42.821Z,5.87
2019-02-14T08:53:42.844Z,5.96
2019-02-14T08:54:42.866Z,5.96
2019-02-14T08:55:42.891Z,6.02
2019-02-14T08:56:42.916Z,6.10
2019-02-14T08:57:42.938Z,6.10
2019-02-14T08:58:42.961Z,6.25
2019-02-14T08:59:42.984Z,6.24
2019-02-14T09:00:43.007Z,6.40
2019-02-14T09:01:43.030Z,6.39
2019-02-14T09:02:43.052Z,6.51
2019-02-14T09:03:43.076Z,6.64
2019-02-14T09:04:43.101Z,6.93
2019-02-14T09:05:43.125Z,7.47
2019-02-14T09:06:46.986Z,8.72
2019-02-14T09:07:43.178Z,9.90
2019-02-14T09:08:43.188Z,10.52
2019-02-14T09:09:43.212Z,10.94
2019-02-14T09:10:43.240Z,11.18
2019-02-14T09:11:43.262Z,11.60
2019-02-14T09:12:43.287Z,12.45
2019-02-14T09:13:43.317Z,12.56
2019-02-14T09:14:43.338Z,12.18
2019-02-14T09:15:43.364Z,11.59
2019-02-14T09:16:43.390Z,11.63
2019-02-14T09:17:43.869Z,11.13
2019-02-14T09:19:32.284Z,10.87
2019-02-14T09:20:32.106Z,10.87
2019-02-14T09:21:32.128Z,10.92
2019-02-14T09:22:32.157Z,10.77
2019-02-14T09:23:32.182Z,10.90
2019-02-14T09:24:32.210Z,11.18
2019-02-14T09:25:32.242Z,11.43
2019-02-14T09:26:32.274Z,11.81
2019-02-14T09:27:32.293Z,11.86
2019-02-14T09:28:32.325Z,11.66
2019-02-14T09:29:32.364Z,11.98
2019-02-14T09:30:32.438Z,12.08
2019-02-14T09:31:32.407Z,12.59
2019-02-14T09:32:32.439Z,12.86
2019-02-14T09:33:32.870Z,12.95
2019-02-14T09:34:32.503Z,13.13
2019-02-14T09:35:32.525Z,13.53
2019-02-14T09:36:34.384Z,13.79
2019-02-14T09:37:32.590Z,13.87
2019-02-14T09:38:32.613Z,14.63
2019-02-14T09:39:40.662Z,14.87
2019-02-14T09:40:32.675Z,15.12
2019-02-14T09:42:25.288Z,15.65
2019-02-14T09:43:29.878Z,15.68
2019-02-14T09:44:25.345Z,15.95
2019-02-14T09:45:25.779Z,16.00
2019-02-14T09:46:25.404Z,15.27
2019-02-14T09:47:25.454Z,15.30
2019-02-14T09:48:25.474Z,15.45
2019-02-14T09:49:25.665Z,15.73
2019-02-14T09:50:25.549Z,15.05
2019-02-14T09:51:25.570Z,15.12
2019-02-14T09:52:25.599Z,14.48
2019-02-14T09:53:25.642Z,14.30
2019-02-14T09:54:25.705Z,13.76
2019-02-14T09:55:25.707Z,13.45
2019-02-14T09:56:25.809Z,13.68
2019-02-14T09:57:25.774Z,13.68
2019-02-14T09:58:25.801Z,13.93
2019-02-14T09:59:25.833Z,14.13
2019-02-14T10:00:25.888Z,14.12
2019-02-14T10:01:25.899Z,14.08
2019-02-14T10:02:25.998Z,12.92
2019-02-14T10:03:25.966Z,12.58
2019-02-14T10:04:26.011Z,12.16
2019-02-14T10:05:26.037Z,11.52
2019-02-14T10:06:26.089Z,10.92
2019-02-14T10:07:26.102Z,10.87
2019-02-14T10:08:26.126Z,10.85
2019-02-14T10:09:26.175Z,10.79
2019-02-14T10:10:26.197Z,10.73
2019-02-14T10:11:26.220Z,10.75
2019-02-14T10:12:26.256Z,10.67
2019-02-14T10:13:26.285Z,10.32
2019-02-14T10:14:26.313Z,10.28
2019-02-14T10:15:26.345Z,10.15
2019-02-14T10:16:26.376Z,9.96
2019-02-14T10:17:26.408Z,9.88
2019-02-14T10:18:26.540Z,9.80
2019-02-14T10:19:28.597Z,9.77
2019-02-14T10:20:26.498Z,9.81
2019-02-14T10:21:26.526Z,9.67
2019-02-14T10:22:26.556Z,9.38
2019-02-14T10:23:26.654Z,9.41
2019-02-14T10:24:26.614Z,9.55
2019-02-14T10:25:26.643Z,9.66
2019-02-14T10:26:26.673Z,9.74
2019-02-14T10:27:26.699Z,9.80
2019-02-14T10:28:26.732Z,9.99
2019-02-14T10:29:26.759Z,10.17
2019-02-14T10:30:26.782Z,10.83
2019-02-14T10:31:26.812Z,11.86
2019-02-14T10:32:26.841Z,13.03
2019-02-14T10:33:27.072Z,14.11
2019-02-14T10:34:26.906Z,14.80
2019-02-14T10:35:26.924Z,14.75
2019-02-14T10:36:26.956Z,14.67
2019-02-14T10:37:26.984Z,15.13
2019-02-14T10:38:27.013Z,15.15
2019-02-14T10:39:27.044Z,15.26
2019-02-14T10:40:27.073Z,15.59
2019-02-14T10:41:29.200Z,15.95
2019-02-14T10:42:27.130Z,15.96
2019-02-14T10:43:27.195Z,16.18
2019-02-14T10:44:27.191Z,16.18
2019-02-14T10:45:27.224Z,16.88
2019-02-14T10:47:29.865Z,17.32
2019-02-14T10:48:29.886Z,17.52
2019-02-14T10:49:29.971Z,18.01
2019-02-14T10:50:29.950Z,18.10
2019-02-14T10:51:29.979Z,17.99
2019-02-14T10:52:30.013Z,17.92
2019-02-14T10:53:30.050Z,18.13
2019-02-14T10:54:30.085Z,18.38
2019-02-14T10:55:30.109Z,18.79
2019-02-14T10:56:30.145Z,18.86
2019-02-14T10:57:30.175Z,18.75
2019-02-14T10:58:30.217Z,18.86
2019-02-14T10:59:30.244Z,18.51
2019-02-14T11:00:30.280Z,17.76
2019-02-14T11:01:30.313Z,17.42
2019-02-14T11:02:30.353Z,17.40
2019-02-14T11:03:30.384Z,17.79
2019-02-14T11:04:30.418Z,17.42
2019-02-14T11:05:30.659Z,17.62
2019-02-14T11:06:30.488Z,18.01
2019-02-14T11:07:30.520Z,18.03
2019-02-14T11:08:31.984Z,18.03
2019-02-14T11:09:30.593Z,18.10
2019-02-14T11:10:30.627Z,16.94
2019-02-14T11:11:30.662Z,16.06
2019-02-14T11:12:30.703Z,15.30
2019-02-14T11:13:30.733Z,15.01
2019-02-14T11:14:30.775Z,14.80
2019-02-14T11:15:30.804Z,14.20
2019-02-14T11:16:30.835Z,13.93
2019-02-14T11:17:30.877Z,13.24
2019-02-14T11:18:30.908Z,13.01
2019-02-14T11:19:30.938Z,12.73
2019-02-14T11:20:30.971Z,12.55
2019-02-14T11:21:31.006Z,12.92
2019-02-14T11:22:31.040Z,13.25
2019-02-14T11:23:31.074Z,13.70
2019-02-14T11:24:31.108Z,13.93
2019-02-14T11:25:31.137Z,14.24
2019-02-14T11:26:31.170Z,15.01
2019-02-14T11:27:31.206Z,15.44
2019-02-14T11:28:31.235Z,15.83
2019-02-14T11:29:31.268Z,15.40
2019-02-14T11:30:31.302Z,15.73
2019-02-14T11:31:31.336Z,16.39
2019-02-14T11:32:31.366Z,16.51
2019-02-14T11:33:31.405Z,16.91
2019-02-14T11:34:31.436Z,16.81
2019-02-14T11:35:31.465Z,16.94
2019-02-14T11:36:31.501Z,16.42
2019-02-14T11:37:31.533Z,16.51
2019-02-14T11:38:40.239Z,16.39
2019-02-14T11:39:31.610Z,15.88
2019-02-14T11:40:31.634Z,16.00
2019-02-14T11:41:31.667Z,16.00
2019-02-14T11:42:31.700Z,15.84
2019-02-14T11:43:31.734Z,15.74
2019-02-14T11:44:39.611Z,15.22
2019-02-14T11:45:31.799Z,14.45
2019-02-14T11:46:31.837Z,14.19
2019-02-14T11:47:31.866Z,14.13
2019-02-14T11:48:31.900Z,14.23
2019-02-14T11:49:31.933Z,14.27
2019-02-14T11:50:31.968Z,14.34
2019-02-14T11:51:31.998Z,14.79
2019-02-14T11:52:32.032Z,14.53
2019-02-14T11:53:32.062Z,14.31
2019-02-14T11:54:32.095Z,14.77
2019-02-14T11:55:32.128Z,15.30
2019-02-14T11:56:32.159Z,14.74
2019-02-14T11:57:32.194Z,15.12
2019-02-14T11:58:32.226Z,15.31
2019-02-14T11:59:32.260Z,15.58
2019-02-14T12:00:32.291Z,16.30
2019-02-14T12:01:32.323Z,16.40
2019-02-14T12:02:32.355Z,16.54
2019-02-14T12:03:32.394Z,16.82
2019-02-14T12:04:32.427Z,17.05
2019-02-14T12:05:32.459Z,17.36
2019-02-14T12:06:32.505Z,17.81
2019-02-14T12:07:32.518Z,18.23
2019-02-14T12:08:32.550Z,17.96
2019-02-14T12:09:32.583Z,16.88
2019-02-14T12:10:32.614Z,16.47
2019-02-14T12:11:32.648Z,16.87
2019-02-14T12:12:32.682Z,16.82
2019-02-14T12:13:32.717Z,17.35
2019-02-14T12:14:32.754Z,17.81
2019-02-14T12:15:32.783Z,18.66
2019-02-14T12:16:32.816Z,19.27
2019-02-14T12:17:32.853Z,19.05
2019-02-14T12:18:32.881Z,18.61
2019-02-14T12:19:32.918Z,18.54
2019-02-14T12:20:32.949Z,18.21
2019-02-14T12:21:32.985Z,17.98
2019-02-14T12:22:33.018Z,17.77
2019-02-14T12:23:33.055Z,17.83
2019-02-14T12:24:33.095Z,17.84
2019-02-14T12:25:33.123Z,18.06
2019-02-14T12:26:33.155Z,18.19
2019-02-14T12:27:33.196Z,18.26
2019-02-14T12:28:33.225Z,18.38
2019-02-14T12:29:33.260Z,18.78
2019-02-14T12:30:33.306Z,18.94
2019-02-14T12:31:33.332Z,19.07
2019-02-14T12:32:33.368Z,18.66
2019-02-14T12:33:33.400Z,18.34
2019-02-14T12:34:33.437Z,18.42
2019-02-14T12:35:33.482Z,18.66
2019-02-14T12:36:33.508Z,18.94
2019-02-14T12:37:33.548Z,18.97
2019-02-14T12:38:33.583Z,19.05
2019-02-14T12:39:33.617Z,18.61
2019-02-14T12:40:33.647Z,18.75
2019-02-14T12:41:33.682Z,18.89
2019-02-14T12:42:33.716Z,19.02
2019-02-14T12:43:33.753Z,19.49
2019-02-14T12:44:33.788Z,19.47
2019-02-14T12:45:33.822Z,19.72
2019-02-14T12:46:33.859Z,20.01
2019-02-14T12:47:33.895Z,20.27
2019-02-14T12:48:33.929Z,20.04
2019-02-14T12:49:33.964Z,19.89
2019-02-14T12:50:35.814Z,19.70
2019-02-14T12:51:34.036Z,19.63
2019-02-14T12:52:34.077Z,19.74
2019-02-14T12:53:34.173Z,20.26
2019-02-14T12:54:34.143Z,20.49
2019-02-14T12:55:34.182Z,20.71
2019-02-14T12:56:34.212Z,20.76
2019-02-14T12:57:34.255Z,19.87
2019-02-14T12:58:34.286Z,20.05
2019-02-14T12:59:34.323Z,20.30
2019-02-14T13:00:34.355Z,20.40
2019-02-14T13:01:34.393Z,20.81
2019-02-14T13:02:34.429Z,20.72
2019-02-14T13:03:34.514Z,20.82
2019-02-14T13:04:34.499Z,20.44
2019-02-14T13:05:34.539Z,20.46
2019-02-14T13:06:34.577Z,20.37
2019-02-14T13:07:34.608Z,20.26
2019-02-14T13:08:34.643Z,20.37
2019-02-14T13:09:34.679Z,19.83
2019-02-14T13:10:34.718Z,19.97
2019-02-14T13:11:34.760Z,19.71
2019-02-14T13:12:34.804Z,19.32
2019-02-14T13:13:34.829Z,19.40
2019-02-14T13:14:34.865Z,19.52
2019-02-14T13:15:34.898Z,19.34